Time;durP1;ratioP1;P1;durP2;ratioP2;P2;SDS_P1;SDS_P2;PMS_P1;PMS_P2;Temp;Humidity;BMP_temperature;BMP_pressure;BME280_temperature;BME280_humidity;BME280_pressure;Samples;Min_cycle;Max_cycle;Signal;HPM_P1;HPM_P2
2022/06/12 00:00:38;;;;;;;9.90;3.23;;;;;;;14.34;100.00;102245.19;5065203;28;20191;-78
2022/06/12 00:03:07;;;;;;;9.60;3.40;;;;;;;14.35;100.00;102249.56;5069235;28;20189;-78
2022/06/12 00:05:35;;;;;;;12.90;3.20;;;;;;;14.95;100.00;102344.81;5052050;28;20252;-79
2022/06/12 00:08:02;;;;;;;11.80;3.20;;;;;;;14.53;100.00;102287.00;5070924;28;20476;-78
2022/06/12 00:10:27;;;;;;;8.43;3.00;;;;;;;14.57;100.00;102299.91;5047567;28;20452;-77
2022/06/12 00:12:53;;;;;;;12.63;3.50;;;;;;;14.55;100.00;102290.34;5070071;28;20483;-77
2022/06/12 00:15:21;;;;;;;10.03;3.53;;;;;;;14.92;100.00;102351.44;5072608;28;20223;-78
2022/06/12 00:17:47;;;;;;;10.03;3.57;;;;;;;14.93;100.00;102355.81;5053157;28;20710;-78
2022/06/12 00:20:15;;;;;;;9.40;3.20;;;;;;;14.52;100.00;102291.53;5055246;28;20440;-80
2022/06/12 00:22:43;;;;;;;9.33;3.67;;;;;;;14.81;100.00;102351.91;5070518;28;20465;-79
2022/06/12 00:25:12;;;;;;;11.97;4.40;;;;;;;14.88;100.00;102347.44;5066119;28;20457;-79
2022/06/12 00:27:38;;;;;;;10.67;3.47;;;;;;;14.58;100.00;102289.94;5053759;28;20434;-79
2022/06/12 00:30:07;;;;;;;7.70;3.00;;;;;;;14.28;100.00;102257.59;5054076;28;20447;-79
2022/06/12 00:32:32;;;;;;;10.57;3.60;;;;;;;13.82;100.00;102162.59;5075475;28;20966;-78
2022/06/12 00:34:58;;;;;;;9.90;3.00;;;;;;;14.13;100.00;102229.81;5071922;28;20448;-80
2022/06/12 00:37:26;;;;;;;8.50;3.03;;;;;;;14.11;100.00;102229.97;5053660;28;20221;-80
2022/06/12 00:39:54;;;;;;;11.43;3.37;;;;;;;14.67;100.00;102327.47;5070998;28;20178;-79
2022/06/12 00:42:23;;;;;;;11.97;3.63;;;;;;;14.64;100.00;102324.31;5055652;28;20460;-78
2022/06/12 00:44:49;;;;;;;9.60;3.37;;;;;;;14.35;100.00;102287.34;5072088;28;20940;-78
2022/06/12 00:47:16;;;;;;;7.33;2.67;;;;;;;14.67;100.00;102319.38;5070192;28;20436;-80
2022/06/12 00:49:41;;;;;;;9.60;2.90;;;;;;;14.70;100.00;102320.84;5050903;28;20438;-80
2022/06/12 00:52:12;;;;;;;12.50;3.03;;;;;;;14.33;100.00;102268.66;5068949;28;20455;-81
2022/06/12 00:54:40;;;;;;;11.53;2.63;;;;;;;13.85;100.00;102183.78;5071765;28;20261;-82
2022/06/12 00:57:07;;;;;;;5.10;2.57;;;;;;;13.61;100.00;102142.63;5070975;28;20473;-82
2022/06/12 00:59:40;;;;;;;12.73;3.23;;;;;;;13.93;100.00;102191.78;5065336;28;20493;-82
2022/06/12 01:02:09;;;;;;;9.20;2.87;;;;;;;14.63;100.00;102318.06;5073175;28;21328;-83
2022/06/12 01:07:23;;;;;;;6.23;2.70;;;;;;;14.51;100.00;102316.00;5066869;28;20979;-83
2022/06/12 01:09:52;;;;;;;10.93;2.77;;;;;;;13.90;100.00;102219.13;5067389;28;20439;-84
2022/06/12 01:12:22;;;;;;;5.43;2.53;;;;;;;14.46;100.00;102286.88;5054812;28;20863;-84
2022/06/12 01:14:57;;;;;;;9.53;3.23;;;;;;;14.67;100.00;102303.16;5071138;28;20428;-84
2022/06/12 01:17:24;;;;;;;5.40;2.33;;;;;;;14.71;100.00;102300.09;5049849;28;20495;-83
2022/06/12 01:19:55;;;;;;;6.60;2.63;;;;;;;14.01;100.00;102168.22;5068858;28;21032;-84
2022/06/12 01:22:46;;;;;;;4.93;2.07;;;;;;;14.73;100.00;102277.25;5069622;28;20437;-83
2022/06/12 01:25:33;;;;;;;10.63;2.93;;;;;;;14.58;100.00;102290.81;5052144;28;20876;-83
2022/06/12 01:28:40;;;;;;;7.63;2.03;;;;;;;14.08;100.00;102203.38;5063504;28;20740;-83
2022/06/12 01:31:21;;;;;;;7.27;2.43;;;;;;;14.56;100.00;102287.47;5050296;28;20442;-83
2022/06/12 01:34:11;;;;;;;6.80;2.23;;;;;;;14.59;100.00;102286.25;5060254;28;20483;-84
2022/06/12 01:37:07;;;;;;;8.00;2.57;;;;;;;14.68;100.00;102285.94;5071641;28;20479;-83
2022/06/12 01:39:55;;;;;;;8.80;2.87;;;;;;;14.09;100.00;102188.00;5067060;28;20783;-83
2022/06/12 01:42:31;;;;;;;6.97;2.40;;;;;;;14.36;100.00;102226.97;5070530;28;20992;-83
2022/06/12 01:45:02;;;;;;;5.00;2.73;;;;;;;14.60;100.00;102264.44;5070874;28;20495;-83
2022/06/12 01:47:50;;;;;;;5.83;2.10;;;;;;;14.65;100.00;102264.69;5070009;28;20432;-83
2022/06/12 01:50:21;;;;;;;4.73;2.37;;;;;;;14.64;100.00;102264.91;5050082;28;20507;-83
2022/06/12 01:52:59;;;;;;;6.80;2.23;;;;;;;14.60;100.00;102253.63;5069700;28;20441;-83
2022/06/12 01:55:36;;;;;;;5.83;2.10;;;;;;;13.99;100.00;102166.75;5049349;28;20455;-83
2022/06/12 01:58:08;;;;;;;5.47;1.83;;;;;;;14.60;100.00;102256.34;5050073;28;20457;-82
2022/06/12 02:00:34;;;;;;;6.70;2.50;;;;;;;13.97;100.00;102158.00;5068631;28;20979;-83
2022/06/12 02:03:30;;;;;;;5.40;2.00;;;;;;;14.50;100.00;102250.38;5071824;28;20444;-83
2022/06/12 02:06:11;;;;;;;5.07;1.57;;;;;;;14.45;100.00;102258.22;5066565;28;21022;-82
2022/06/12 02:08:42;;;;;;;6.20;2.20;;;;;;;14.37;100.00;102261.03;5072349;28;20439;-83
2022/06/12 02:14:21;;;;;;;5.87;1.90;;;;;;;14.31;100.00;102267.19;5072573;28;20434;-83
2022/06/12 02:16:52;;;;;;;4.83;2.70;;;;;;;14.37;100.00;102253.75;5052104;28;20479;-83
2022/06/12 02:19:26;;;;;;;7.80;2.73;;;;;;;13.85;100.00;102167.59;5051493;28;20432;-82
2022/06/12 02:21:54;;;;;;;9.07;2.43;;;;;;;14.33;100.00;102240.84;5067589;28;20439;-84
2022/06/12 02:24:28;;;;;;;6.90;2.30;;;;;;;14.07;100.00;102200.88;5064021;28;20462;-84
2022/06/12 02:27:17;;;;;;;4.93;1.87;;;;;;;14.39;100.00;102245.47;5051076;28;20459;-83
2022/06/12 02:30:00;;;;;;;6.73;2.10;;;;;;;13.43;100.00;102101.75;5048279;28;21221;-83
2022/06/12 02:32:36;;;;;;;7.20;2.20;;;;;;;14.28;100.00;102246.78;5067966;28;20428;-83
2022/06/12 02:35:10;;;;;;;7.23;1.90;;;;;;;14.31;100.00;102232.91;5054482;28;20453;-83
2022/06/12 02:37:41;;;;;;;6.13;1.97;;;;;;;14.14;100.00;102223.38;5071475;28;20964;-83
2022/06/12 02:40:16;;;;;;;4.37;1.67;;;;;;;13.51;100.00;102112.41;5067421;28;20451;-82
2022/06/12 02:42:45;;;;;;;5.43;1.93;;;;;;;13.85;100.00;102203.50;5070170;28;20464;-83
2022/06/12 02:45:17;;;;;;;4.50;1.90;;;;;;;14.10;100.00;102227.47;5072020;28;20451;-84
2022/06/12 02:47:45;;;;;;;7.30;2.60;;;;;;;13.91;100.00;102210.00;5069005;28;20433;-84
2022/06/12 02:50:13;;;;;;;7.43;2.20;;;;;;;13.95;100.00;102227.50;5073020;28;20511;-83
2022/06/12 02:53:13;;;;;;;8.20;1.97;;;;;;;13.82;100.00;102224.59;5067384;28;20447;-83
2022/06/12 02:55:50;;;;;;;12.13;3.10;;;;;;;13.87;100.00;102219.50;5067747;28;20543;-83
2022/06/12 02:58:37;;;;;;;8.20;2.27;;;;;;;13.80;100.00;102219.41;5051797;28;20456;-84
2022/06/12 03:01:11;;;;;;;6.87;2.63;;;;;;;13.76;100.00;102236.97;5073052;28;20455;-83
2022/06/12 03:03:56;;;;;;;9.57;2.93;;;;;;;13.87;100.00;102223.03;5054273;28;20541;-84
2022/06/12 03:06:26;;;;;;;6.43;2.33;;;;;;;14.00;100.00;102222.34;5061779;28;20527;-83
2022/06/12 03:08:56;;;;;;;8.47;2.77;;;;;;;13.89;100.00;102215.59;5045169;28;20467;-83
2022/06/12 03:11:33;;;;;;;9.00;2.65;;;;;;;14.02;100.00;102220.31;5055605;28;20441;-84
2022/06/12 03:13:59;;;;;;;9.30;2.47;;;;;;;14.07;100.00;102228.69;5054708;28;21016;-84
2022/06/12 03:16:29;;;;;;;9.80;2.80;;;;;;;13.97;100.00;102217.34;5077442;28;20571;-83
2022/06/12 03:19:05;;;;;;;5.70;2.23;;;;;;;13.97;100.00;102218.19;5068635;28;20571;-84
2022/06/12 03:22:13;;;;;;;10.23;3.00;;;;;;;14.03;100.00;102219.31;5057244;28;20528;-82
2022/06/12 03:24:41;;;;;;;6.70;2.33;;;;;;;13.93;100.00;102218.75;5047102;28;20511;-82
2022/06/12 03:27:28;;;;;;;5.80;2.33;;;;;;;13.94;100.00;102233.91;5051800;28;20855;-83
2022/06/12 03:30:17;;;;;;;7.13;2.70;;;;;;;13.73;100.00;102203.13;5061766;28;20469;-83
2022/06/12 03:33:04;;;;;;;5.27;2.20;;;;;;;13.92;100.00;102235.97;5059321;28;20421;-80
2022/06/12 03:35:35;;;;;;;7.80;2.83;;;;;;;13.95;100.00;102235.59;5077598;28;20464;-79
2022/06/12 03:38:04;;;;;;;8.40;2.03;;;;;;;13.92;100.00;102222.47;5071749;28;20461;-80
2022/06/12 03:40:47;;;;;;;6.80;2.30;;;;;;;13.91;100.00;102234.28;5068976;28;21026;-79
2022/06/12 03:43:38;;;;;;;15.50;3.67;;;;;;;13.79;100.00;102232.03;5071911;28;20433;-79
2022/06/12 03:46:36;;;;;;;10.40;2.60;;;;;;;13.54;100.00;102198.31;5069628;28;20471;-80
2022/06/12 03:49:31;;;;;;;10.67;3.00;;;;;;;13.74;100.00;102233.63;5067722;28;20448;-81
2022/06/12 03:52:12;;;;;;;10.33;2.87;;;;;;;13.76;100.00;102229.72;5071205;28;20433;-81
2022/06/12 03:54:56;;;;;;;6.50;2.37;;;;;;;13.90;100.00;102238.84;5054247;28;20788;-81
2022/06/12 03:57:52;;;;;;;9.03;2.70;;;;;;;13.85;100.00;102235.03;5069747;28;20622;-80
2022/06/12 04:00:23;;;;;;;5.50;2.40;;;;;;;13.93;100.00;102240.31;5069767;28;21635;-80
2022/06/12 04:02:57;;;;;;;7.07;3.13;;;;;;;13.96;100.00;102246.19;5069483;28;20844;-80
2022/06/12 04:05:29;;;;;;;10.93;3.40;;;;;;;13.40;100.00;102167.63;5052006;28;20454;-79
2022/06/12 04:07:57;;;;;;;7.43;2.97;;;;;;;13.20;100.00;102116.09;5070883;28;20478;-80
2022/06/12 04:10:27;;;;;;;6.90;3.00;;;;;;;13.52;100.00;102166.13;5072465;28;20457;-79
2022/06/12 04:12:54;;;;;;;7.20;2.63;;;;;;;13.36;100.00;102119.66;5069234;28;21105;-82
2022/06/12 04:15:25;;;;;;;7.77;2.83;;;;;;;14.00;100.00;102225.91;5069099;28;20819;-81
2022/06/12 04:17:51;;;;;;;7.10;2.50;;;;;;;14.00;100.00;102225.06;5073093;22;20528;-86
2022/06/12 04:20:21;;;;;;;4.43;2.40;;;;;;;13.94;100.00;102218.56;5058273;28;20442;-87
2022/06/12 04:22:53;;;;;;;5.60;2.50;;;;;;;14.11;100.00;102229.97;5043628;28;20183;-88
2022/06/12 04:25:34;;;;;;;7.43;2.63;;;;;;;14.06;100.00;102229.72;5057911;28;20433;-87
2022/06/12 04:28:01;;;;;;;8.40;2.80;;;;;;;13.71;100.00;102212.44;5040768;28;20488;-87
2022/06/12 04:30:33;;;;;;;7.00;2.77;;;;;;;13.83;100.00;102242.47;5057813;28;20442;-89
2022/06/12 04:33:24;;;;;;;9.00;2.43;;;;;;;13.77;100.00;102239.50;5057157;28;20528;-89
2022/06/12 04:36:00;;;;;;;7.27;3.03;;;;;;;13.83;100.00;102219.03;5039670;28;20985;-88
2022/06/12 04:38:28;;;;;;;7.60;2.63;;;;;;;13.64;100.00;102158.41;5058377;28;20504;-88
2022/06/12 04:40:54;;;;;;;4.60;2.47;;;;;;;14.01;100.00;102241.06;5057007;28;20456;-89
2022/06/12 04:43:20;;;;;;;5.73;2.37;;;;;;;14.07;100.00;102239.47;5038262;28;20432;-88
2022/06/12 04:45:47;;;;;;;6.50;2.37;;;;;;;14.01;100.00;102240.25;5041845;28;20997;-89
2022/06/12 04:48:19;;;;;;;9.20;3.30;;;;;;;14.02;100.00;102239.19;5041212;28;20542;-89
2022/06/12 04:50:45;;;;;;;11.87;2.83;;;;;;;13.47;100.00;102146.97;5044868;28;20445;-89
2022/06/12 04:53:11;;;;;;;9.30;2.57;;;;;;;14.20;100.00;102236.97;5039372;28;20455;-89
2022/06/12 04:55:36;;;;;;;6.33;2.80;;;;;;;13.41;100.00;102114.56;5057132;28;20929;-88
2022/06/12 04:58:02;;;;;;;6.77;3.00;;;;;;;13.65;100.00;102149.28;5043281;28;20622;-89
2022/06/12 05:00:28;;;;;;;6.77;2.37;;;;;;;13.80;100.00;102146.59;5042376;28;20187;-89
2022/06/12 05:02:54;;;;;;;8.60;3.10;;;;;;;13.99;100.00;102158.66;5054632;28;20238;-87
2022/06/12 05:05:19;;;;;;;7.13;2.67;;;;;;;13.08;100.00;102040.31;5056989;28;20187;-87
2022/06/12 05:07:45;;;;;;;8.40;3.17;;;;;;;13.73;100.00;102143.81;5054116;28;20449;-87
2022/06/12 05:10:14;;;;;;;11.07;3.23;;;;;;;14.38;100.00;102243.81;5054274;28;21204;-88
2022/06/12 05:12:39;;;;;;;8.03;2.97;;;;;;;12.97;100.00;102023.78;5058166;28;20183;-89
2022/06/12 05:15:06;;;;;;;7.27;2.63;;;;;;;13.74;100.00;102099.66;5054645;28;20495;-88
2022/06/12 05:17:31;;;;;;;8.70;2.90;;;;;;;14.29;100.00;102194.50;5056810;28;20363;-85
2022/06/12 05:19:57;;;;;;;6.90;3.07;;;;;;;14.06;100.00;102167.69;5039985;28;21056;-88
2022/06/12 05:22:25;;;;;;;5.53;2.63;;;;;;;14.32;100.00;102204.94;5038602;28;20187;-86
2022/06/12 05:24:51;;;;;;;8.63;2.33;;;;;;;14.20;100.00;102150.63;5039086;28;21783;-88
2022/06/12 05:27:20;;;;;;;9.07;2.60;;;;;;;14.65;100.00;102220.66;5039739;28;26031;-89
2022/06/12 05:29:46;;;;;;;6.67;2.40;;;;;;;14.78;100.00;102214.53;5037362;28;20266;-89
2022/06/12 05:32:15;;;;;;;9.40;2.13;;;;;;;14.94;100.00;102214.28;5039395;28;20434;-90
2022/06/12 05:34:41;;;;;;;7.50;2.70;;;;;;;14.52;100.00;102161.13;5056316;28;20532;-87
2022/06/12 05:37:06;;;;;;;9.53;2.60;;;;;;;14.85;100.00;102221.69;5044458;28;20946;-88
2022/06/12 05:39:32;;;;;;;9.30;2.83;;;;;;;14.36;100.00;102148.69;5053838;28;20434;-87
2022/06/12 05:41:58;;;;;;;11.77;2.90;;;;;;;14.57;100.00;102193.78;5041884;28;20227;-86
2022/06/12 05:44:23;;;;;;;9.13;2.77;;;;;;;14.28;100.00;102129.91;5035309;28;20668;-87
2022/06/12 05:46:49;;;;;;;10.20;3.63;;;;;;;14.42;100.00;102162.25;5039863;28;20210;-87
2022/06/12 05:49:15;;;;;;;6.73;2.10;;;;;;;14.34;100.00;102129.16;5058120;28;20179;-86
2022/06/12 05:51:41;;;;;;;12.73;2.70;;;;;;;14.59;100.00;102200.66;5053205;28;20186;-89
2022/06/12 05:54:07;;;;;;;12.37;3.20;;;;;;;14.62;100.00;102205.69;5059295;28;20470;-88
2022/06/12 05:56:33;;;;;;;10.93;3.10;;;;;;;13.50;100.00;102076.53;5058962;28;20437;-88
2022/06/12 05:58:59;;;;;;;7.13;2.13;;;;;;;14.85;100.00;102232.50;5041293;28;20466;-85
2022/06/12 06:01:26;;;;;;;5.33;2.40;;;;;;;14.11;100.00;102121.22;5041852;28;20282;-87
2022/06/12 06:03:52;;;;;;;10.93;3.23;;;;;;;14.82;100.00;102243.69;5052831;28;20436;-88
2022/06/12 06:06:21;;;;;;;9.63;3.30;;;;;;;14.54;100.00;102226.56;5036780;28;20804;-87
2022/06/12 06:08:47;;;;;;;14.10;3.33;;;;;;;14.22;100.00;102134.22;5047652;28;20479;-87
2022/06/12 06:11:12;;;;;;;9.63;2.90;;;;;;;15.02;100.00;102232.25;5057634;28;20437;-88
2022/06/12 06:13:38;;;;;;;10.53;2.47;;;;;;;15.13;100.00;102256.03;5046698;28;20197;-87
2022/06/12 06:16:04;;;;;;;8.70;2.43;;;;;;;15.13;100.00;102235.25;5058072;28;20187;-89
2022/06/12 06:18:29;;;;;;;9.17;3.40;;;;;;;15.29;100.00;102246.81;5042282;28;20207;-89
2022/06/12 06:20:55;;;;;;;13.90;4.17;;;;;;;15.09;100.00;102223.16;5061480;28;20444;-88
2022/06/12 06:23:20;;;;;;;8.67;3.17;;;;;;;14.34;100.00;102107.56;5042789;28;20205;-87
2022/06/12 06:25:46;;;;;;;6.57;2.50;;;;;;;15.45;100.00;102241.13;5042412;28;20183;-88
2022/06/12 06:28:14;;;;;;;6.87;2.30;;;;;;;15.27;100.00;102227.25;5043011;28;20554;-89
2022/06/12 06:30:40;;;;;;;6.50;2.03;;;;;;;15.72;100.00;102252.97;5043413;28;20190;-89
2022/06/12 06:33:07;;;;;;;8.80;2.13;;;;;;;15.69;100.00;102263.38;5057987;28;20445;-88
2022/06/12 06:35:33;;;;;;;11.27;2.87;;;;;;;15.73;100.00;102288.97;5060143;28;21021;-88
2022/06/12 06:37:58;;;;;;;15.73;4.03;;;;;;;14.36;100.00;102108.19;5054641;28;20469;-87
2022/06/12 06:40:26;;;;;;;12.50;2.90;;;;;;;14.53;100.00;102109.63;5060798;28;20549;-87
2022/06/12 06:42:52;;;;;;;7.60;2.17;;;;;;;14.57;100.00;102129.81;5063346;28;20349;-86
2022/06/12 06:48:03;;;;;;;6.10;2.43;;;;;;;15.16;100.00;102155.66;5060671;28;20295;-87
2022/06/12 06:50:30;;;;;;;12.23;3.33;;;;;;;15.59;100.00;102194.22;5061559;28;20433;-88
2022/06/12 06:52:59;;;;;;;8.40;3.43;;;;;;;15.62;100.00;102173.19;5060745;28;20433;-88
2022/06/12 06:55:25;;;;;;;14.77;3.90;;;;;;;16.02;100.00;102248.13;5060328;28;20440;-86
2022/06/12 06:57:51;;;;;;;12.03;3.47;;;;;;;15.92;100.00;102258.50;5063234;28;20507;-87
2022/06/12 07:00:21;;;;;;;17.57;3.30;;;;;;;14.51;100.00;102041.47;5059271;28;20448;-87
2022/06/12 07:02:46;;;;;;;11.67;3.73;;;;;;;15.40;100.00;102159.75;5042783;28;20429;-86
2022/06/12 07:05:12;;;;;;;11.27;2.90;;;;;;;15.99;100.00;102217.94;5064279;28;21133;-87
2022/06/12 07:07:38;;;;;;;5.90;2.93;;;;;;;16.25;100.00;102228.88;5064962;28;20218;-89
2022/06/12 07:10:06;;;;;;;9.30;2.87;;;;;;;16.04;100.00;102208.19;5044247;28;20187;-85
2022/06/12 07:12:32;;;;;;;7.07;2.90;;;;;;;15.14;100.00;102084.75;5059334;28;20179;-88
2022/06/12 07:14:57;;;;;;;11.87;3.53;;;;;;;16.16;100.00;102213.84;5059199;28;20441;-86
2022/06/12 07:17:23;;;;;;;11.27;3.80;;;;;;;15.61;100.00;102115.56;5059534;28;20695;-88
2022/06/12 07:19:48;;;;;;;8.30;2.80;;;;;;;14.81;100.00;102000.78;5060596;28;20179;-89
2022/06/12 07:22:14;;;;;;;9.00;2.50;;;;;;;15.50;100.00;102068.28;5045762;28;20179;-87
2022/06/12 07:24:39;;;;;;;12.57;3.30;;;;;;;15.25;100.00;102067.97;5059896;28;20190;-87
2022/06/12 07:27:05;;;;;;;14.33;3.70;;;;;;;16.30;100.00;102243.69;5042831;28;20683;-86
2022/06/12 07:29:31;;;;;;;8.57;2.70;;;;;;;15.66;100.00;102121.22;5045184;28;20229;-85
2022/06/12 07:31:56;;;;;;;9.70;2.93;;;;;;;15.77;100.00;102147.72;5057484;28;20875;-88
2022/06/12 07:34:22;;;;;;;13.57;3.63;;;;;;;15.47;100.00;102067.84;5045942;28;20726;-86
2022/06/12 07:36:51;;;;;;;10.10;3.20;;;;;;;16.57;100.00;102240.00;5057102;28;20557;-87
2022/06/12 07:39:21;;;;;;;10.10;2.57;;;;;;;16.64;100.00;102240.03;5059538;28;20928;-86
2022/06/12 07:41:49;;;;;;;8.20;3.00;;;;;;;16.70;100.00;102241.94;5057707;28;20434;-88
2022/06/12 07:44:16;;;;;;;9.23;3.10;;;;;;;16.40;100.00;102187.25;5057582;28;20447;-86
2022/06/12 07:46:42;;;;;;;7.83;2.90;;;;;;;16.84;100.00;102230.09;5040237;28;20445;-87
2022/06/12 07:49:09;;;;;;;5.17;2.20;;;;;;;16.91;100.00;102225.53;5042483;28;20885;-87
2022/06/12 07:51:34;;;;;;;9.13;2.70;;;;;;;16.36;100.00;102123.72;5037719;28;20468;-87
2022/06/12 07:54:00;;;;;;;8.80;3.33;;;;;;;16.30;100.00;102116.44;5046617;28;20994;-87
2022/06/12 07:56:26;;;;;;;5.60;2.17;;;;;;;16.73;100.00;102177.31;5041662;28;20184;-88
2022/06/12 07:58:52;;;;;;;6.60;3.37;;;;;;;16.72;100.00;102142.28;5056988;28;20224;-88
2022/06/12 08:01:21;;;;;;;12.80;3.17;;;;;;;16.73;100.00;102144.81;5046076;28;20433;-86
2022/06/12 08:03:48;;;;;;;13.77;2.83;;;;;;;16.66;100.00;102127.75;5046365;28;20437;-86
2022/06/12 08:06:20;;;;;;;11.20;2.53;;;;;;;17.23;100.00;102224.91;5052936;28;20515;-87
2022/06/12 08:08:45;;;;;;;7.73;2.27;;;;;;;17.06;100.00;102206.34;5040787;28;20821;-87
2022/06/12 08:11:11;;;;;;;9.30;2.27;;;;;;;17.23;100.00;102224.91;5040338;28;20441;-86
2022/06/12 08:13:37;;;;;;;12.00;2.80;;;;;;;16.97;100.00;102195.91;5062345;28;20668;-79
2022/06/12 08:16:03;;;;;;;8.40;2.87;;;;;;;16.78;100.00;102160.50;5031411;28;20987;-86
2022/06/12 08:18:29;;;;;;;4.40;2.03;;;;;;;16.94;100.00;102187.16;5032784;28;20218;-86
2022/06/12 08:20:58;;;;;;;12.03;3.00;;;;;;;17.42;100.00;102236.78;5052655;28;20446;-83
2022/06/12 08:23:37;;;;;;;4.30;2.10;;;;;;;17.43;100.00;102227.59;5029267;28;20739;-86
2022/06/12 08:26:02;;;;;;;11.17;2.70;;;;;;;17.55;100.00;102226.72;5041139;28;20437;-77
2022/06/12 08:28:31;;;;;;;9.27;3.03;;;;;;;17.24;100.00;102189.47;5055552;28;20464;-82
2022/06/12 08:30:59;;;;;;;8.70;2.47;;;;;;;17.27;100.00;102210.72;5055939;28;20241;-83
2022/06/12 08:33:25;;;;;;;9.60;3.40;;;;;;;15.80;100.00;101971.47;5051370;28;20468;-81
2022/06/12 08:35:51;;;;;;;8.80;3.00;;;;;;;17.33;100.00;102188.19;5041833;28;20444;-76
2022/06/12 08:38:17;;;;;;;10.73;3.43;;;;;;;17.56;100.00;102214.00;5052678;28;20211;-79
2022/06/12 08:41:03;;;;;;;9.80;2.33;;;;;;;17.88;100.00;102220.44;5057333;28;20442;-85
2022/06/12 08:43:40;;;;;;;12.60;3.10;;;;;;;17.36;100.00;102138.13;5044268;28;20186;-82
2022/06/12 08:46:22;;;;;;;6.97;2.10;;;;;;;17.32;100.00;102097.00;5055653;28;20435;-82
2022/06/12 08:48:59;;;;;;;12.80;2.70;;;;;;;16.17;100.00;101960.22;5052666;28;20449;-85
2022/06/12 08:51:36;;;;;;;6.50;2.60;;;;;;;17.89;100.00;102229.41;5056451;28;20448;-84
2022/06/12 08:54:17;;;;;;;10.90;2.20;;;;;;;17.60;100.00;102156.41;5056999;28;20440;-83
2022/06/12 08:56:50;;;;;;;7.07;2.10;;;;;;;17.51;100.00;102105.31;5049534;28;20458;-84
2022/06/12 08:59:22;;;;;;;8.77;2.67;;;;;;;17.62;100.00;102124.47;5048194;28;20436;-89
2022/06/12 09:01:48;;;;;;;10.90;3.10;;;;;;;17.60;100.00;102093.19;5037731;28;20460;-86
2022/06/12 09:04:16;;;;;;;6.77;2.23;;;;;;;18.20;100.00;102183.34;5038439;28;20928;-84
2022/06/12 09:06:47;;;;;;;7.40;2.40;;;;;;;18.36;100.00;102181.16;5056212;28;20392;-78
2022/06/12 09:09:23;;;;;;;5.30;2.00;;;;;;;18.47;100.00;102185.91;5027320;28;20434;-87
2022/06/12 09:12:05;;;;;;;10.50;2.73;;;;;;;18.02;100.00;102128.91;5045180;28;20964;-89
2022/06/12 09:14:59;;;;;;;12.77;2.83;;;;;;;18.48;100.00;102184.84;5029474;28;20495;-88
2022/06/12 09:17:35;;;;;;;10.13;3.23;;;;;;;18.78;100.00;102179.66;5035390;28;20473;-85
2022/06/12 09:20:22;;;;;;;8.50;2.50;;;;;;;18.72;100.00;102175.06;5038646;28;20441;-85
2022/06/12 09:23:05;;;;;;;11.30;2.57;;;;;;;18.60;100.00;102183.09;5038524;28;20860;-86
2022/06/12 09:25:39;;;;;;;8.70;2.63;;;;;;;18.71;100.00;102171.50;5038114;28;20441;-85
2022/06/12 09:28:19;;;;;;;5.17;1.90;;;;;;;18.65;100.00;102142.50;5034648;28;20456;-87
2022/06/12 09:30:54;;;;;;;10.30;2.80;;;;;;;18.01;100.00;102054.78;5036031;28;20437;-88
2022/06/12 09:33:39;;;;;;;6.20;2.47;;;;;;;18.55;100.00;102135.91;5034517;28;20436;-87
2022/06/12 09:36:13;;;;;;;8.50;2.40;;;;;;;18.64;100.00;102154.44;5041363;28;20491;-87
2022/06/12 09:39:03;;;;;;;7.10;2.30;;;;;;;18.63;100.00;102165.50;5031717;28;20514;-89
2022/06/12 09:41:53;;;;;;;5.20;2.20;;;;;;;18.52;100.00;102135.28;5033463;28;20944;-87
2022/06/12 09:44:37;;;;;;;12.70;2.73;;;;;;;18.90;100.00;102147.16;5045477;28;20825;-87
2022/06/12 09:47:14;;;;;;;8.10;2.17;;;;;;;18.91;100.00;102141.47;5044413;28;20460;-85
2022/06/12 09:50:07;;;;;;;8.67;2.70;;;;;;;18.88;100.00;102141.91;5060470;28;20437;-88
2022/06/12 09:53:04;;;;;;;13.90;2.40;;;;;;;18.36;100.00;102027.16;5042061;28;20559;-85
2022/06/12 09:55:51;;;;;;;6.70;2.23;;;;;;;18.30;100.00;102025.34;5058544;28;20482;-87
2022/06/12 09:58:33;;;;;;;7.50;2.33;;;;;;;18.50;100.00;102015.13;5055615;28;20474;-86
2022/06/12 10:01:16;;;;;;;9.87;3.03;;;;;;;19.34;100.00;102126.22;5056033;28;20441;-86
2022/06/12 10:03:51;;;;;;;5.03;2.03;;;;;;;18.60;100.00;102030.06;5040552;28;20437;-82
2022/06/12 10:06:35;;;;;;;6.80;2.40;;;;;;;18.14;100.00;102006.84;5056019;28;20441;-84
2022/06/12 10:09:19;;;;;;;6.50;1.60;;;;;;;19.01;100.00;102132.81;5039588;28;20464;-80
2022/06/12 10:12:00;;;;;;;5.67;1.87;;;;;;;18.10;100.00;102019.22;5060192;28;20437;-86
2022/06/12 10:14:35;;;;;;;8.00;2.40;;;;;;;18.60;100.00;102117.88;5051292;28;20421;-86
2022/06/12 10:17:12;;;;;;;7.53;2.03;;;;;;;18.64;100.00;102121.81;5011991;28;1283072;-87
2022/06/12 10:20:04;;;;;;;4.50;1.90;;;;;;;18.36;100.00;102086.91;5041384;28;20465;-87
2022/06/12 10:22:33;;;;;;;10.13;2.30;;;;;;;18.52;100.00;102120.88;5038471;28;20961;-86
2022/06/12 10:25:01;;;;;;;6.17;2.63;;;;;;;18.50;100.00;102122.97;5033627;28;20466;-80
2022/06/12 10:27:49;;;;;;;4.93;1.80;;;;;;;18.41;100.00;102127.84;5044524;28;20543;-81
2022/06/12 10:30:33;;;;;;;4.77;1.67;;;;;;;18.36;100.00;102143.94;5048012;28;21371;-76
2022/06/12 10:33:15;;;;;;;3.50;1.73;;;;;;;18.23;100.00;102144.06;5050543;22;20578;-68
2022/06/12 10:35:53;;;;;;;6.53;1.93;;;;;;;18.16;100.00;102146.78;5028350;28;20520;-69
2022/06/12 10:38:21;;;;;;;6.13;2.63;;;;;;;18.16;100.00;102156.81;5028591;28;20523;-69
2022/06/12 10:40:54;;;;;;;7.47;2.33;;;;;;;17.98;100.00;102152.13;5028950;28;20445;-71
2022/06/12 10:43:27;;;;;;;7.90;2.40;;;;;;;18.07;100.00;102167.09;5034321;28;20461;-70
2022/06/12 10:46:00;;;;;;;3.93;1.40;;;;;;;18.04;100.00;102184.66;5027162;28;20445;-68
2022/06/12 10:48:30;;;;;;;4.23;2.10;;;;;;;18.04;100.00;102186.53;5031127;28;20429;-69
2022/06/12 10:51:17;;;;;;;7.17;2.80;;;;;;;18.09;100.00;102183.19;5037695;28;20435;-71
2022/06/12 10:53:43;;;;;;;6.37;2.20;;;;;;;18.07;100.00;102159.78;5017995;28;20872;-70
2022/06/12 10:56:33;;;;;;;5.73;2.00;;;;;;;18.24;100.00;102181.00;5035598;28;20443;-70
2022/06/12 10:58:58;;;;;;;8.33;2.10;;;;;;;18.42;100.00;102177.56;5008103;28;20203;-71
2022/06/12 11:01:34;;;;;;;4.53;2.07;;;;;;;18.44;100.00;102157.28;5035557;28;20438;-69
2022/06/12 11:04:05;;;;;;;6.80;2.60;;;;;;;18.37;100.00;102120.34;5031484;28;20286;-70
2022/06/12 11:06:52;;;;;;;7.27;2.70;;;;;;;18.54;100.00;102143.19;5020276;28;20438;-67
2022/06/12 11:09:36;;;;;;;4.63;2.30;;;;;;;18.59;100.00;102137.94;5020448;28;20442;-66
2022/06/12 11:12:15;;;;;;;5.70;2.20;;;;;;;18.04;100.00;102054.34;5030845;28;21229;-69
2022/06/12 11:14:57;;;;;;;6.07;2.40;;;;;;;18.61;100.00;102137.75;5012504;28;21020;-67
2022/06/12 11:17:48;;;;;;;9.17;2.10;;;;;;;18.21;100.00;102054.66;5038788;28;20553;-66
2022/06/12 11:20:30;;;;;;;9.53;2.77;;;;;;;18.60;100.00;102127.91;5037860;28;20480;-68
2022/06/12 11:23:17;;;;;;;9.33;2.73;;;;;;;18.81;100.00;102132.19;5035228;28;20457;-69
2022/06/12 11:25:59;;;;;;;12.43;2.97;;;;;;;18.82;100.00;102126.50;5038042;28;20537;-68
2022/06/12 11:29:02;;;;;;;7.77;2.03;;;;;;;18.79;100.00;102110.63;5037736;28;20454;-68
2022/06/12 11:31:37;;;;;;;5.07;2.10;;;;;;;18.89;100.00;102110.13;5040379;28;20425;-69
2022/06/12 11:34:25;;;;;;;6.10;2.37;;;;;;;18.95;100.00;102120.13;5039075;28;20453;-69
2022/06/12 11:37:23;;;;;;;4.30;1.90;;;;;;;18.87;100.00;102118.50;5012019;28;20437;-69
2022/06/12 11:40:08;;;;;;;5.53;2.20;;;;;;;18.39;100.00;102037.56;5001543;28;20853;-68
2022/06/12 11:42:46;;;;;;;4.70;1.83;;;;;;;19.04;100.00;102104.34;5016144;28;21080;-69
2022/06/12 11:45:38;;;;;;;9.43;2.27;;;;;;;19.07;100.00;102093.84;5024042;28;21098;-68
2022/06/12 11:48:24;;;;;;;8.13;2.60;;;;;;;19.27;100.00;102120.03;5026742;28;20433;-68
2022/06/12 11:50:50;;;;;;;7.50;2.33;;;;;;;19.23;100.00;102111.47;5043157;28;20553;-68